Time;durP1;ratioP1;P1;durP2;ratioP2;P2;SDS_P1;SDS_P2;PMS_P1;PMS_P2;Temp;Humidity;BMP_temperature;BMP_pressure;BME280_temperature;BME280_humidity;BME280_pressure;Samples;Min_cycle;Max_cycle;Signal;HPM_P1;HPM_P2
2024/01/29 00:02:25;;;;;;;4.47;3.47;;;;;;;3.56;100.00;102426.56;4993584;28;20409;-77
2024/01/29 00:04:53;;;;;;;4.05;3.17;;;;;;;3.55;100.00;102429.94;5024536;28;20045;-77
2024/01/29 00:07:21;;;;;;;4.95;3.45;;;;;;;3.53;100.00;102436.78;5004617;28;20049;-77
2024/01/29 00:09:48;;;;;;;3.38;3.08;;;;;;;3.51;100.00;102439.31;5002434;28;20060;-77
2024/01/29 00:12:16;;;;;;;6.15;3.38;;;;;;;3.47;100.00;102442.56;4973466;28;20430;-77
2024/01/29 00:14:44;;;;;;;5.28;3.20;;;;;;;3.45;100.00;102436.34;5017240;28;20415;-77
2024/01/29 00:17:11;;;;;;;4.13;3.63;;;;;;;3.42;100.00;102440.50;5000300;28;20049;-77
2024/01/29 00:19:38;;;;;;;5.00;3.70;;;;;;;3.39;100.00;102437.72;5003527;28;20049;-77
2024/01/29 00:22:06;;;;;;;3.85;3.03;;;;;;;3.37;100.00;102439.34;5006332;28;20052;-77
2024/01/29 00:24:33;;;;;;;8.38;3.22;;;;;;;3.34;100.00;102437.44;4982870;28;20048;-77
2024/01/29 00:27:01;;;;;;;6.70;3.22;;;;;;;3.31;100.00;102434.69;4986889;28;20049;-78
2024/01/29 00:29:29;;;;;;;3.90;3.20;;;;;;;3.30;100.00;102435.47;4978355;28;20683;-77
2024/01/29 00:31:58;;;;;;;5.78;3.15;;;;;;;3.27;100.00;102443.09;5023330;28;20046;-77
2024/01/29 00:34:25;;;;;;;4.47;3.00;;;;;;;3.24;100.00;102449.03;4985674;28;20053;-77
2024/01/29 00:36:53;;;;;;;5.70;3.80;;;;;;;3.23;100.00;102443.72;5010714;28;20041;-77
2024/01/29 00:39:20;;;;;;;3.60;3.28;;;;;;;3.21;100.00;102454.06;4969592;28;21096;-77
2024/01/29 00:41:48;;;;;;;4.93;3.33;;;;;;;3.19;100.00;102445.25;5009981;28;20072;-77
2024/01/29 00:44:17;;;;;;;5.28;3.47;;;;;;;3.16;100.00;102457.19;4971245;28;20068;-77
2024/01/29 00:46:44;;;;;;;6.32;3.08;;;;;;;3.13;100.00;102461.41;5026895;28;20077;-77
2024/01/29 00:49:12;;;;;;;4.15;3.25;;;;;;;3.11;100.00;102462.16;4982901;28;20050;-77
2024/01/29 00:51:39;;;;;;;8.82;3.67;;;;;;;3.10;100.00;102460.34;5010008;28;20034;-77
2024/01/29 00:54:07;;;;;;;4.78;3.10;;;;;;;3.07;100.00;102457.56;5008135;28;20045;-78
2024/01/29 00:56:34;;;;;;;4.28;3.75;;;;;;;3.05;100.00;102457.47;4990316;28;20045;-77
2024/01/29 00:59:01;;;;;;;3.88;2.97;;;;;;;3.03;100.00;102451.28;5006526;28;20046;-78
2024/01/29 01:01:29;;;;;;;5.55;3.83;;;;;;;3.01;100.00;102460.72;5014177;28;20076;-77
2024/01/29 01:03:57;;;;;;;5.72;3.78;;;;;;;2.99;100.00;102457.13;5008848;28;20053;-77
2024/01/29 01:06:24;;;;;;;3.20;2.90;;;;;;;2.96;100.00;102451.72;5001256;28;20060;-77
2024/01/29 01:08:52;;;;;;;6.55;3.35;;;;;;;2.93;100.00;102461.97;5009861;28;20053;-77
2024/01/29 01:11:19;;;;;;;5.93;3.63;;;;;;;2.90;100.00;102451.34;4984508;28;20033;-77
2024/01/29 01:13:49;;;;;;;5.75;3.70;;;;;;;2.88;100.00;102458.19;4999732;28;20064;-77
2024/01/29 01:16:17;;;;;;;3.42;3.13;;;;;;;2.85;100.00;102452.78;4981848;28;20042;-77
2024/01/29 01:18:44;;;;;;;3.72;3.42;;;;;;;2.82;100.00;102457.81;5009820;28;20053;-77
2024/01/29 01:21:11;;;;;;;7.53;4.03;;;;;;;2.79;100.00;102460.22;5015597;28;20046;-78
2024/01/29 01:23:39;;;;;;;4.65;3.20;;;;;;;2.76;100.00;102465.22;5022040;28;20057;-77
2024/01/29 01:26:06;;;;;;;4.68;3.42;;;;;;;2.74;100.00;102467.72;5010490;28;20045;-78
2024/01/29 01:28:33;;;;;;;5.22;4.03;;;;;;;2.71;100.00;102467.56;5005191;28;20060;-77
2024/01/29 01:31:01;;;;;;;4.57;3.22;;;;;;;2.69;100.00;102467.47;4956507;28;20376;-77
2024/01/29 01:33:29;;;;;;;3.25;2.95;;;;;;;2.66;100.00;102472.47;4991237;28;20439;-77
2024/01/29 01:35:56;;;;;;;4.30;3.08;;;;;;;2.64;100.00;102476.69;5017370;28;20053;-78
2024/01/29 01:38:23;;;;;;;4.63;3.15;;;;;;;2.62;100.00;102486.09;4991177;28;20052;-77
2024/01/29 01:40:51;;;;;;;6.05;3.70;;;;;;;2.62;100.00;102482.63;5027640;28;20041;-77
2024/01/29 01:43:21;;;;;;;4.80;3.47;;;;;;;2.60;100.00;102486.84;4979892;28;20533;-77
2024/01/29 01:46:16;;;;;;;4.60;3.33;;;;;;;2.56;100.00;102490.06;4965457;28;20053;-77
2024/01/29 01:48:43;;;;;;;4.25;3.20;;;;;;;2.52;100.00;102484.66;5009234;28;20068;-77
2024/01/29 01:51:11;;;;;;;4.97;3.58;;;;;;;2.50;100.00;102487.97;4982839;28;20060;-77
2024/01/29 01:53:40;;;;;;;7.68;3.15;;;;;;;2.49;100.00;102484.44;4992642;28;20060;-77
2024/01/29 01:56:08;;;;;;;4.68;3.53;;;;;;;2.46;100.00;102481.66;4990318;28;20407;-77
2024/01/29 01:58:36;;;;;;;5.50;3.28;;;;;;;2.42;100.00;102481.38;4971196;28;20419;-77
2024/01/29 02:01:03;;;;;;;4.40;3.33;;;;;;;2.39;100.00;102474.28;4964445;28;20057;-77
2024/01/29 02:03:32;;;;;;;3.65;3.15;;;;;;;2.34;100.00;102479.22;5025996;28;20052;-77
2024/01/29 02:05:59;;;;;;;5.13;3.40;;;;;;;2.36;100.00;102481.00;4997699;28;20053;-77
2024/01/29 02:08:29;;;;;;;3.53;3.20;;;;;;;2.39;100.00;102486.41;5024779;28;20049;-77
2024/01/29 02:10:59;;;;;;;14.88;3.78;;;;;;;2.42;100.00;102481.38;5007249;28;20084;-77
2024/01/29 02:13:27;;;;;;;4.72;3.40;;;;;;;2.43;100.00;102472.78;4984167;28;20775;-77
2024/01/29 02:15:54;;;;;;;5.50;3.70;;;;;;;2.44;100.00;102466.75;5005586;28;20053;-77
2024/01/29 02:18:22;;;;;;;3.88;2.63;;;;;;;2.44;100.00;102465.06;4982593;28;20045;-77
2024/01/29 02:20:49;;;;;;;4.05;3.33;;;;;;;2.43;100.00;102468.44;5028177;28;20626;-77
2024/01/29 02:23:17;;;;;;;5.38;3.33;;;;;;;2.42;100.00;102465.75;5012960;28;20054;-77
2024/01/29 02:25:44;;;;;;;4.55;3.20;;;;;;;2.41;100.00;102463.97;5025443;28;20045;-77
2024/01/29 02:28:12;;;;;;;5.25;3.13;;;;;;;2.42;100.00;102473.56;4975529;28;20053;-77
2024/01/29 02:30:39;;;;;;;6.38;3.30;;;;;;;2.44;100.00;102470.28;5003928;28;20060;-77
2024/01/29 02:33:07;;;;;;;5.40;3.05;;;;;;;2.46;100.00;102476.47;4977999;28;20081;-77
2024/01/29 02:35:35;;;;;;;5.28;2.97;;;;;;;2.48;100.00;102463.56;5000297;28;20048;-77
2024/01/29 02:38:02;;;;;;;5.45;3.70;;;;;;;2.51;100.00;102476.72;5014411;28;20049;-77
2024/01/29 02:40:30;;;;;;;3.53;3.17;;;;;;;2.51;100.00;102471.53;5005514;28;20045;-77
2024/01/29 02:42:57;;;;;;;6.55;3.38;;;;;;;2.51;100.00;102474.13;5000101;28;20050;-78
2024/01/29 02:45:25;;;;;;;3.50;2.92;;;;;;;2.54;100.00;102476.94;5008449;28;20041;-77
2024/01/29 02:47:52;;;;;;;5.82;4.03;;;;;;;2.51;100.00;102476.72;4971640;28;20046;-77
2024/01/29 02:50:19;;;;;;;3.97;3.10;;;;;;;2.47;100.00;102480.84;5022902;28;20041;-77
2024/01/29 02:52:47;;;;;;;4.25;3.42;;;;;;;2.45;100.00;102490.25;5015535;28;20483;-77
2024/01/29 02:55:14;;;;;;;5.47;3.38;;;;;;;2.42;100.00;102486.56;4987370;28;20057;-77
2024/01/29 02:57:42;;;;;;;8.63;3.85;;;;;;;2.39;100.00;102486.41;4991089;28;20056;-77
2024/01/29 03:00:10;;;;;;;4.30;3.53;;;;;;;2.34;100.00;102480.88;4984017;28;20049;-77
2024/01/29 03:02:37;;;;;;;4.15;3.22;;;;;;;2.30;100.00;102490.19;4960279;28;20046;-77
2024/01/29 03:05:05;;;;;;;5.90;3.78;;;;;;;2.26;100.00;102490.81;5021595;28;20056;-77
2024/01/29 03:07:33;;;;;;;3.92;3.53;;;;;;;2.21;100.00;102486.13;4996994;28;20061;-77
2024/01/29 03:10:00;;;;;;;7.10;3.92;;;;;;;2.14;100.00;102482.25;4989590;28;20550;-77
2024/01/29 03:12:28;;;;;;;4.82;3.15;;;;;;;2.08;100.00;102485.34;5006441;28;20403;-77
2024/01/29 03:14:55;;;;;;;3.83;3.08;;;;;;;2.05;100.00;102484.25;5002022;28;20056;-77
2024/01/29 03:17:23;;;;;;;4.07;3.63;;;;;;;2.01;100.00;102474.47;4990391;28;20418;-77
2024/01/29 03:19:50;;;;;;;4.20;3.70;;;;;;;1.97;100.00;102468.16;5007258;28;20053;-77
2024/01/29 03:22:18;;;;;;;6.13;3.90;;;;;;;1.91;100.00;102467.75;5012722;28;23762;-77
2024/01/29 03:24:45;;;;;;;6.55;3.75;;;;;;;1.87;100.00;102469.28;4999747;28;20057;-77
2024/01/29 03:27:13;;;;;;;5.93;3.88;;;;;;;1.89;100.00;102457.28;5004584;28;20038;-78
2024/01/29 03:29:40;;;;;;;4.30;3.90;;;;;;;1.91;100.00;102457.34;5006971;28;20049;-77
2024/01/29 03:32:09;;;;;;;4.78;3.72;;;;;;;1.93;100.00;102464.47;4963321;28;20057;-77
2024/01/29 03:34:42;;;;;;;6.15;3.72;;;;;;;1.97;100.00;102464.63;5005660;28;20053;-77
2024/01/29 03:37:10;;;;;;;5.07;3.38;;;;;;;2.01;100.00;102456.25;5003324;28;20057;-77
2024/01/29 03:39:39;;;;;;;4.78;3.33;;;;;;;2.02;100.00;102445.03;4996127;28;20053;-77
2024/01/29 03:42:06;;;;;;;7.70;4.00;;;;;;;2.04;100.00;102453.84;5003721;28;20096;-77
2024/01/29 03:44:34;;;;;;;5.57;3.92;;;;;;;2.04;100.00;102459.97;5023773;28;20474;-77
2024/01/29 03:47:01;;;;;;;5.68;3.83;;;;;;;2.06;100.00;102457.44;4977295;28;20503;-77
2024/01/29 03:49:28;;;;;;;4.53;3.15;;;;;;;2.07;100.00;102451.44;4971193;28;20053;-77
2024/01/29 03:51:57;;;;;;;4.82;3.63;;;;;;;2.07;100.00;102452.34;5005438;28;20423;-77
2024/01/29 03:54:25;;;;;;;4.25;3.85;;;;;;;2.09;100.00;102453.31;5000179;28;20049;-77
2024/01/29 03:56:56;;;;;;;;;;;;;;;2.10;100.00;102456.84;4985103;28;20060;-77
2024/01/29 03:59:23;;;;;;;7.28;3.97;;;;;;;2.12;100.00;102450.03;5001472;28;19924;-77
2024/01/29 04:01:50;;;;;;;4.90;3.25;;;;;;;2.13;100.00;102444.03;5007288;28;20406;-77
2024/01/29 04:04:18;;;;;;;4.15;3.75;;;;;;;2.14;100.00;102443.22;4954500;28;23412;-77
2024/01/29 04:06:48;;;;;;;6.85;4.00;;;;;;;2.18;100.00;102440.03;4995596;28;20487;-77
2024/01/29 04:09:20;;;;;;;4.68;3.90;;;;;;;2.20;100.00;102443.63;4983607;28;20834;-77
2024/01/29 04:11:50;;;;;;;7.78;3.70;;;;;;;2.21;100.00;102448.03;4981386;28;20426;-77
2024/01/29 04:14:18;;;;;;;6.05;3.42;;;;;;;2.24;100.00;102445.59;5024594;28;20038;-77
2024/01/29 04:16:50;;;;;;;4.07;3.42;;;;;;;2.26;100.00;102441.38;5011612;28;20045;-77
2024/01/29 04:19:17;;;;;;;4.38;3.63;;;;;;;2.26;100.00;102430.97;4971984;28;20058;-77
2024/01/29 04:21:45;;;;;;;5.30;3.88;;;;;;;2.26;100.00;102433.59;4978493;28;20049;-77
2024/01/29 04:24:13;;;;;;;4.43;3.75;;;;;;;2.26;100.00;102432.69;4990734;28;20053;-78
2024/01/29 04:26:41;;;;;;;6.78;4.40;;;;;;;2.25;100.00;102429.19;4985055;28;20057;-77
2024/01/29 04:29:08;;;;;;;4.00;3.70;;;;;;;2.24;100.00;102435.19;5008283;28;20049;-77
2024/01/29 04:31:36;;;;;;;3.95;3.58;;;;;;;2.24;100.00;102427.38;5027701;28;20049;-77
2024/01/29 04:34:03;;;;;;;4.25;3.70;;;;;;;2.24;100.00;102432.59;4994455;28;20038;-77
2024/01/29 04:36:31;;;;;;;3.65;3.28;;;;;;;2.23;100.00;102428.22;4976229;28;20052;-77
2024/01/29 04:38:59;;;;;;;7.70;3.70;;;;;;;2.23;100.00;102433.41;5026873;28;20057;-77
2024/01/29 04:41:27;;;;;;;7.60;4.18;;;;;;;2.23;100.00;102437.69;4997608;28;21093;-77
2024/01/29 04:43:54;;;;;;;4.55;4.03;;;;;;;2.21;100.00;102427.22;4987826;28;20045;-77
2024/01/29 04:46:23;;;;;;;4.80;3.72;;;;;;;2.21;100.00;102444.50;5025979;28;20605;-77
2024/01/29 04:48:51;;;;;;;5.78;3.60;;;;;;;2.21;100.00;102452.31;5007255;28;20041;-77
2024/01/29 04:51:20;;;;;;;6.60;3.88;;;;;;;2.20;100.00;102438.41;4959728;28;20064;-77
2024/01/29 04:53:47;;;;;;;7.85;4.10;;;;;;;2.21;100.00;102444.50;5019734;28;20052;-77
2024/01/29 04:56:15;;;;;;;4.00;3.65;;;;;;;2.20;100.00;102442.72;4997827;28;20052;-77
2024/01/29 04:58:42;;;;;;;4.63;3.85;;;;;;;2.20;100.00;102435.81;5027471;28;20421;-77
2024/01/29 05:01:10;;;;;;;5.57;4.22;;;;;;;2.20;100.00;102441.00;4979198;28;20495;-79
2024/01/29 05:03:39;;;;;;;7.28;4.07;;;;;;;2.21;100.00;102427.22;5009534;28;20695;-78
2024/01/29 05:06:06;;;;;;;6.25;4.50;;;;;;;2.20;100.00;102421.91;4971139;28;20045;-78
2024/01/29 05:08:34;;;;;;;8.25;4.25;;;;;;;2.19;100.00;102418.38;4997246;28;20051;-76
2024/01/29 05:11:02;;;;;;;5.97;4.03;;;;;;;2.20;100.00;102417.59;5009450;28;20529;-77
2024/01/29 05:13:29;;;;;;;6.63;4.60;;;;;;;2.20;100.00;102415.00;5000433;28;20054;-78
2024/01/29 05:15:57;;;;;;;4.53;4.13;;;;;;;2.20;100.00;102415.00;5007205;28;20499;-78
2024/01/29 05:18:24;;;;;;;4.00;3.53;;;;;;;2.20;100.00;102412.41;5005723;28;20057;-78
2024/01/29 05:20:52;;;;;;;5.55;3.63;;;;;;;2.19;100.00;102413.19;5009524;28;20046;-78
2024/01/29 05:23:19;;;;;;;4.70;4.20;;;;;;;2.20;100.00;102408.91;4978209;28;20044;-78
2024/01/29 05:25:47;;;;;;;6.95;4.03;;;;;;;2.20;100.00;102402.00;5010751;28;20513;-78
2024/01/29 05:28:14;;;;;;;6.53;4.78;;;;;;;2.20;100.00;102402.00;5014149;28;20411;-79
2024/01/29 05:30:41;;;;;;;6.70;4.00;;;;;;;2.20;100.00;102398.50;5009656;28;20054;-78
2024/01/29 05:33:09;;;;;;;5.28;4.38;;;;;;;2.20;100.00;102401.09;4991870;28;20041;-78
2024/01/29 05:35:54;;;;;;;4.95;4.18;;;;;;;2.20;100.00;102398.50;4997977;28;20522;-77
2024/01/29 05:38:22;;;;;;;8.52;5.00;;;;;;;2.20;100.00;102403.72;4943750;28;20426;-78
2024/01/29 05:40:50;;;;;;;12.48;7.78;;;;;;;2.20;100.00;102409.81;5020462;28;20042;-77
2024/01/29 05:43:17;;;;;;;7.97;4.70;;;;;;;2.19;100.00;102405.38;4978133;28;20057;-78
2024/01/29 05:45:46;;;;;;;7.72;4.85;;;;;;;2.20;100.00;102414.09;5013066;28;20038;-78
2024/01/29 05:48:14;;;;;;;6.10;4.70;;;;;;;2.21;100.00;102419.41;5005312;28;20080;-78
2024/01/29 05:50:42;;;;;;;5.70;4.28;;;;;;;2.21;100.00;102426.28;5007986;28;20056;-78
2024/01/29 05:53:10;;;;;;;6.80;4.57;;;;;;;2.21;100.00;102429.81;4966356;28;20072;-78
2024/01/29 05:55:38;;;;;;;5.60;4.40;;;;;;;2.20;100.00;102433.22;4967667;28;20505;-78
2024/01/29 05:58:06;;;;;;;6.25;4.15;;;;;;;2.20;100.00;102453.13;5002880;28;20061;-78
2024/01/29 06:00:34;;;;;;;4.55;4.15;;;;;;;2.17;100.00;102448.59;4996592;28;20061;-78
2024/01/29 06:03:01;;;;;;;5.80;4.43;;;;;;;2.16;100.00;102452.03;5004565;28;20075;-78
2024/01/29 06:05:29;;;;;;;9.05;5.13;;;;;;;2.13;100.00;102450.13;5008885;28;20605;-77
2024/01/29 06:07:56;;;;;;;4.85;4.35;;;;;;;2.13;100.00;102457.03;4979095;28;20057;-78
2024/01/29 06:10:24;;;;;;;7.07;4.60;;;;;;;2.11;100.00;102456.94;4966778;28;20054;-78
2024/01/29 06:12:51;;;;;;;6.10;4.90;;;;;;;2.11;100.00;102448.22;5022622;28;20418;-77
2024/01/29 06:15:19;;;;;;;7.45;4.60;;;;;;;2.08;100.00;102448.94;5010946;28;20053;-78
2024/01/29 06:17:46;;;;;;;5.25;4.65;;;;;;;2.08;100.00;102437.63;4981495;28;20064;-78
2024/01/29 06:20:14;;;;;;;9.30;4.78;;;;;;;2.08;100.00;102448.94;4989326;28;20053;-78
2024/01/29 06:22:46;;;;;;;5.88;4.80;;;;;;;2.09;100.00;102448.13;5007385;28;20053;-78
2024/01/29 06:25:13;;;;;;;7.03;4.47;;;;;;;2.09;100.00;102436.84;4984996;28;20056;-78
2024/01/29 06:27:41;;;;;;;6.68;4.32;;;;;;;2.11;100.00;102435.22;4980881;28;20072;-78
2024/01/29 06:30:09;;;;;;;5.30;4.35;;;;;;;2.12;100.00;102434.44;4996562;28;20053;-78
2024/01/29 06:32:36;;;;;;;7.35;4.85;;;;;;;2.13;100.00;102436.22;4997454;28;20537;-78
2024/01/29 06:35:04;;;;;;;5.28;4.50;;;;;;;2.13;100.00;102426.72;5022532;28;20278;-79
2024/01/29 06:37:32;;;;;;;10.40;5.63;;;;;;;2.14;100.00;102427.63;4989615;28;20057;-78
2024/01/29 06:40:01;;;;;;;7.03;5.55;;;;;;;2.13;100.00;102428.41;4981552;28;20057;-78
2024/01/29 06:42:28;;;;;;;8.40;5.00;;;;;;;2.15;100.00;102426.81;4984868;28;20038;-78
2024/01/29 06:44:56;;;;;;;9.20;4.90;;;;;;;2.17;100.00;102416.50;4996571;28;20049;-78
2024/01/29 06:47:23;;;;;;;9.05;5.47;;;;;;;2.19;100.00;102417.50;4997828;28;20495;-78
2024/01/29 06:49:51;;;;;;;8.65;5.10;;;;;;;2.19;100.00;102430.50;4995718;28;20050;-78
2024/01/29 06:52:18;;;;;;;7.90;5.47;;;;;;;2.19;100.00;102453.91;5006827;28;20053;-77
2024/01/29 06:54:46;;;;;;;8.32;5.20;;;;;;;2.18;100.00;102453.03;5021611;28;20080;-78
2024/01/29 06:57:13;;;;;;;6.25;4.97;;;;;;;2.19;100.00;102453.91;4957727;28;20054;-78
2024/01/29 06:59:41;;;;;;;7.38;5.60;;;;;;;2.19;100.00;102467.81;5001738;28;20415;-82
2024/01/29 07:02:08;;;;;;;6.18;4.90;;;;;;;2.18;100.00;102459.94;5000443;28;20434;-78
2024/01/29 07:04:36;;;;;;;6.18;4.95;;;;;;;2.18;100.00;102466.03;5012933;28;20057;-78
2024/01/29 07:07:04;;;;;;;5.82;4.78;;;;;;;2.17;100.00;102474.63;4991965;28;20049;-78
2024/01/29 07:09:32;;;;;;;9.02;5.00;;;;;;;2.18;100.00;102472.94;5021134;28;20068;-78
2024/01/29 07:11:59;;;;;;;6.43;5.72;;;;;;;2.18;100.00;102489.44;4991158;28;20041;-78
2024/01/29 07:14:27;;;;;;;6.85;5.82;;;;;;;2.17;100.00;102485.03;4984290;28;20052;-78
2024/01/29 07:16:55;;;;;;;9.20;6.18;;;;;;;2.13;100.00;102486.53;5006267;28;20069;-77
2024/01/29 07:19:26;;;;;;;8.52;6.40;;;;;;;2.13;100.00;102488.22;4981326;28;20053;-78
2024/01/29 07:21:55;;;;;;;6.32;5.65;;;;;;;2.12;100.00;102484.75;5010316;28;20076;-78
2024/01/29 07:24:22;;;;;;;8.02;5.75;;;;;;;2.12;100.00;102494.25;5020939;28;20056;-78
2024/01/29 07:26:50;;;;;;;6.07;5.35;;;;;;;2.11;100.00;102484.63;4999450;28;20053;-77
2024/01/29 07:29:17;;;;;;;6.55;5.32;;;;;;;2.11;100.00;102495.03;4987456;28;20057;-78
2024/01/29 07:31:46;;;;;;;8.13;5.38;;;;;;;2.10;100.00;102485.47;4978696;28;20061;-78
2024/01/29 07:34:13;;;;;;;8.10;5.30;;;;;;;2.11;100.00;102495.94;4994556;28;20104;-78
2024/01/29 07:36:41;;;;;;;10.00;5.50;;;;;;;2.13;100.00;102499.53;5032993;28;20053;-77
2024/01/29 07:39:12;;;;;;;5.80;5.15;;;;;;;2.16;100.00;102501.44;5003135;28;20053;-78
2024/01/29 07:41:39;;;;;;;5.85;5.05;;;;;;;2.19;100.00;102487.72;5024993;28;20033;-78
2024/01/29 07:44:08;;;;;;;11.90;7.55;;;;;;;2.25;100.00;102490.72;4966815;28;22251;-79
2024/01/29 07:46:35;;;;;;;10.60;7.05;;;;;;;2.26;100.00;102490.81;5018139;28;20041;-78
2024/01/29 07:49:03;;;;;;;10.38;6.68;;;;;;;2.30;100.00;102495.41;5011001;28;20050;-77
2024/01/29 07:51:31;;;;;;;10.18;6.03;;;;;;;2.32;100.00;102491.19;4998670;28;20053;-78
2024/01/29 07:53:59;;;;;;;13.25;7.35;;;;;;;2.37;100.00;102501.00;5011779;28;20049;-78
2024/01/29 07:56:26;;;;;;;8.43;6.13;;;;;;;2.39;100.00;102489.00;4993721;28;20088;-77
2024/01/29 07:58:54;;;;;;;6.95;5.50;;;;;;;2.43;100.00;102502.28;4963775;28;20472;-78
2024/01/29 08:01:21;;;;;;;7.60;5.72;;;;;;;2.46;100.00;102505.09;4968692;28;20046;-78
2024/01/29 08:03:49;;;;;;;10.02;6.00;;;;;;;2.50;100.00;102508.78;5009502;28;20056;-78
2024/01/29 08:06:17;;;;;;;8.68;6.03;;;;;;;2.55;100.00;102507.34;5008428;28;20038;-78
2024/01/29 08:08:44;;;;;;;8.90;5.90;;;;;;;2.59;100.00;102514.56;5009895;28;20049;-78
2024/01/29 08:11:12;;;;;;;5.20;4.70;;;;;;;2.64;100.00;102514.84;4995765;28;20515;-77
2024/01/29 08:13:39;;;;;;;6.97;5.28;;;;;;;2.67;100.00;102502.91;4988379;28;20056;-78
2024/01/29 08:16:07;;;;;;;9.88;6.18;;;;;;;2.72;100.00;102511.91;4959712;28;20049;-78
2024/01/29 08:18:34;;;;;;;6.90;5.15;;;;;;;2.76;100.00;102514.69;4986744;28;20060;-78
2024/01/29 08:21:03;;;;;;;7.60;6.10;;;;;;;2.79;100.00;102518.38;5015123;28;20060;-78
2024/01/29 08:23:31;;;;;;;7.97;6.05;;;;;;;2.84;100.00;102514.38;5025539;28;20045;-78
2024/01/29 08:25:58;;;;;;;9.82;6.10;;;;;;;2.89;100.00;102509.44;5001426;28;20050;-78
2024/01/29 08:28:26;;;;;;;7.63;5.32;;;;;;;2.94;100.00;102523.63;5003450;28;20069;-78
2024/01/29 08:30:55;;;;;;;6.85;5.53;;;;;;;3.00;100.00;102521.41;4989027;28;20511;-78
2024/01/29 08:33:23;;;;;;;9.23;6.35;;;;;;;3.06;100.00;102524.41;4986572;28;20058;-78
2024/01/29 08:35:51;;;;;;;7.55;6.05;;;;;;;3.11;100.00;102532.47;5009924;28;20426;-77
2024/01/29 08:38:19;;;;;;;10.10;5.70;;;;;;;3.17;100.00;102532.84;5006822;28;20054;-78
2024/01/29 08:40:46;;;;;;;8.07;5.85;;;;;;;3.24;100.00;102529.81;5000739;28;20521;-78
2024/01/29 08:43:14;;;;;;;6.32;5.05;;;;;;;3.32;100.00;102535.47;5033941;28;20061;-78
2024/01/29 08:45:41;;;;;;;7.13;5.63;;;;;;;3.38;100.00;102522.81;4985501;28;20041;-78
2024/01/29 08:48:09;;;;;;;8.82;5.30;;;;;;;3.45;100.00;102527.56;4987742;28;20053;-78
2024/01/29 08:50:36;;;;;;;5.75;5.20;;;;;;;3.53;100.00;102537.56;5008048;28;20080;-78
2024/01/29 08:53:04;;;;;;;9.68;6.30;;;;;;;3.59;100.00;102533.63;5026303;28;20049;-78
2024/01/29 08:55:32;;;;;;;12.15;8.30;;;;;;;3.65;100.00;102536.56;4993632;28;20423;-78
2024/01/29 08:58:02;;;;;;;9.38;6.82;;;;;;;3.73;100.00;102534.41;5027977;28;20049;-78
2024/01/29 09:00:32;;;;;;;7.97;6.22;;;;;;;3.78;100.00;102537.28;4983427;28;20053;-78
2024/01/29 09:02:59;;;;;;;6.97;5.82;;;;;;;3.85;100.00;102537.72;4982984;28;20060;-78
2024/01/29 09:05:27;;;;;;;8.63;5.85;;;;;;;3.92;100.00;102546.81;4997664;28;20178;-78
2024/01/29 09:07:54;;;;;;;8.30;6.53;;;;;;;3.98;100.00;102543.66;5010023;28;20060;-78
2024/01/29 09:10:24;;;;;;;8.10;6.32;;;;;;;4.05;100.00;102541.47;5024882;28;20041;-78
2024/01/29 09:12:52;;;;;;;7.50;5.97;;;;;;;4.14;100.00;102550.63;4998167;28;20434;-78
2024/01/29 09:15:19;;;;;;;7.72;6.05;;;;;;;4.22;100.00;102547.66;4976336;28;20494;-79
2024/01/29 09:17:47;;;;;;;10.10;6.28;;;;;;;4.28;100.00;102553.22;4979421;28;20403;-78
2024/01/29 09:20:15;;;;;;;6.95;5.47;;;;;;;4.36;100.00;102558.84;4999343;28;20406;-78
2024/01/29 09:22:43;;;;;;;11.65;6.05;;;;;;;4.43;100.00;102554.88;5008541;28;20045;-78
2024/01/29 09:25:12;;;;;;;8.55;6.90;;;;;;;4.52;100.00;102551.88;5012743;28;20050;-78
2024/01/29 09:27:39;;;;;;;9.68;5.97;;;;;;;4.58;100.00;102547.00;5003170;28;20572;-78
2024/01/29 09:30:08;;;;;;;9.50;6.22;;;;;;;4.62;100.00;102565.53;5008365;28;20053;-78
2024/01/29 09:32:35;;;;;;;7.60;6.22;;;;;;;4.67;100.00;102558.84;4956683;28;22869;-78
2024/01/29 09:35:04;;;;;;;7.88;6.43;;;;;;;4.71;100.00;102553.78;4988134;28;20053;-78
2024/01/29 09:37:31;;;;;;;8.48;6.97;;;;;;;4.77;100.00;102554.13;4992005;28;20053;-78
2024/01/29 09:39:59;;;;;;;8.77;6.25;;;;;;;4.82;100.00;102553.56;5008970;28;20060;-78
2024/01/29 09:42:29;;;;;;;7.95;6.35;;;;;;;4.89;100.00;102554.78;4995397;28;20049;-78
2024/01/29 09:45:00;;;;;;;11.20;6.63;;;;;;;4.96;100.00;102561.25;5009927;28;20049;-77
2024/01/29 09:47:28;;;;;;;8.73;6.60;;;;;;;5.02;100.00;102556.34;5000071;28;21099;-77
2024/01/29 09:49:56;;;;;;;9.98;6.40;;;;;;;5.06;100.00;102555.69;4981815;28;20045;-77
2024/01/29 09:52:25;;;;;;;7.70;6.40;;;;;;;5.12;100.00;102552.50;5013743;28;20045;-78
2024/01/29 09:54:53;;;;;;;9.32;5.95;;;;;;;5.17;100.00;102557.16;5009788;28;20049;-78
2024/01/29 09:57:21;;;;;;;7.28;6.45;;;;;;;5.21;100.00;102560.81;4997191;28;20897;-78
2024/01/29 09:59:48;;;;;;;10.50;6.88;;;;;;;5.26;100.00;102561.97;5017527;28;20052;-78
2024/01/29 10:02:17;;;;;;;7.60;6.43;;;;;;;5.33;100.00;102568.41;4995867;28;20053;-79
2024/01/29 10:04:45;;;;;;;10.13;7.18;;;;;;;5.39;100.00;102572.25;4985320;28;20048;-76
2024/01/29 10:07:14;;;;;;;12.23;6.63;;;;;;;5.45;100.00;102559.47;5004450;28;20050;-77
2024/01/29 10:09:42;;;;;;;10.30;7.30;;;;;;;5.53;100.00;102564.22;5008593;28;20050;-76
2024/01/29 10:12:20;;;;;;;9.20;7.68;;;;;;;5.59;100.00;102567.13;5005402;28;20061;-77
2024/01/29 10:14:48;;;;;;;8.50;7.18;;;;;;;5.62;100.00;102572.53;4982525;28;20049;-77
2024/01/29 10:17:15;;;;;;;7.97;7.22;;;;;;;5.64;100.00;102578.72;4996565;28;20899;-79
2024/01/29 10:19:44;;;;;;;8.18;7.07;;;;;;;5.66;100.00;102583.22;4958297;28;20045;-78
2024/01/29 10:22:12;;;;;;;9.48;7.03;;;;;;;5.69;100.00;102589.41;5006998;28;20045;-78
2024/01/29 10:24:40;;;;;;;8.35;7.43;;;;;;;5.70;100.00;102581.66;5007910;28;20061;-78
2024/01/29 10:27:09;;;;;;;7.70;6.80;;;;;;;5.71;100.00;102580.84;5020881;28;20064;-79
2024/01/29 10:29:49;;;;;;;7.50;6.75;;;;;;;5.73;100.00;102573.06;5012477;28;20068;-78
2024/01/29 10:32:16;;;;;;;9.13;6.68;;;;;;;5.74;100.00;102580.09;4995217;28;20054;-78
2024/01/29 10:34:44;;;;;;;8.80;7.63;;;;;;;5.74;100.00;102573.13;4955852;28;20636;-78
2024/01/29 10:37:14;;;;;;;9.45;7.50;;;;;;;5.75;100.00;102572.34;4980323;28;20525;-78
2024/01/29 10:39:42;;;;;;;9.45;6.80;;;;;;;5.78;100.00;102582.94;5007460;28;20061;-78
2024/01/29 10:42:23;;;;;;;;;;;;;;;5.82;100.00;102569.22;5005565;28;20065;-78
2024/01/29 10:44:52;;;;;;;8.98;8.07;;;;;;;5.88;100.00;102578.16;5007260;28;19932;-78
2024/01/29 10:47:30;;;;;;;11.82;8.50;;;;;;;5.92;100.00;102575.78;5000945;28;20076;-78
2024/01/29 10:49:58;;;;;;;11.38;8.05;;;;;;;5.97;100.00;102563.88;5005915;28;20045;-78
2024/01/29 10:52:27;;;;;;;11.90;7.93;;;;;;;6.03;100.00;102572.03;4977138;28;20094;-78
2024/01/29 10:54:59;;;;;;;11.00;7.82;;;;;;;6.10;100.00;102574.94;5007123;28;20049;-79
2024/01/29 10:57:29;;;;;;;11.15;7.72;;;;;;;6.16;100.00;102584.00;5005514;28;20057;-77
2024/01/29 10:59:58;;;;;;;12.70;7.20;;;;;;;6.21;100.00;102577.25;5006501;28;20056;-78
2024/01/29 11:02:27;;;;;;;11.50;8.02;;;;;;;6.27;100.00;102571.41;4993671;28;20326;-77
2024/01/29 11:04:54;;;;;;;12.23;7.93;;;;;;;6.35;100.00;102569.16;4977969;28;20083;-77
2024/01/29 11:07:26;;;;;;;11.43;7.60;;;;;;;6.40;100.00;102580.75;4980571;28;20913;-80
2024/01/29 11:09:59;;;;;;;13.85;8.75;;;;;;;6.42;100.00;102568.63;5007704;28;20053;-79
2024/01/29 11:12:28;;;;;;;13.10;8.52;;;;;;;6.41;100.00;102569.47;5015673;28;20041;-78
2024/01/29 11:14:57;;;;;;;12.20;7.93;;;;;;;6.44;100.00;102564.38;5025010;28;20072;-79
2024/01/29 11:17:25;;;;;;;10.60;8.20;;;;;;;6.48;100.00;102566.31;4991189;28;20045;-78
2024/01/29 11:19:53;;;;;;;11.48;8.80;;;;;;;6.52;100.00;102578.75;5007544;28;20053;-78
2024/01/29 11:22:20;;;;;;;9.25;8.20;;;;;;;6.56;100.00;102575.44;4990412;28;20057;-79
2024/01/29 11:24:48;;;;;;;10.07;8.15;;;;;;;6.59;100.00;102572.94;4995557;28;20054;-78
2024/01/29 11:27:16;;;;;;;11.07;7.82;;;;;;;6.62;100.00;102580.97;5010752;28;20037;-76
2024/01/29 11:29:44;;;;;;;11.68;8.48;;;;;;;6.66;100.00;102582.00;5011657;28;20049;-78